sensor_id;sensor_type;location;lat;lon;timestamp;P1;durP1;ratioP1;P2;durP2;ratioP2
10216;SDS011;5152;59.674;16.838;2022-12-18T00:01:51;0.00;;;0.00;;
10216;SDS011;5152;59.674;16.838;2022-12-18T00:04:20;0.00;;;0.00;;
10216;SDS011;5152;59.674;16.838;2022-12-18T00:06:48;0.00;;;0.00;;
10216;SDS011;5152;59.674;16.838;2022-12-18T00:09:15;0.00;;;0.00;;
10216;SDS011;5152;59.674;16.838;2022-12-18T00:11:42;0.00;;;0.00;;
10216;SDS011;5152;59.674;16.838;2022-12-18T00:14:09;0.00;;;0.00;;
10216;SDS011;5152;59.674;16.838;2022-12-18T00:16:37;0.00;;;0.00;;
10216;SDS011;5152;59.674;16.838;2022-12-18T00:19:05;0.00;;;0.00;;
10216;SDS011;5152;59.674;16.838;2022-12-18T00:21:33;10.60;;;9.83;;
10216;SDS011;5152;59.674;16.838;2022-12-18T00:24:00;0.00;;;0.00;;
10216;SDS011;5152;59.674;16.838;2022-12-18T00:26:28;0.00;;;0.00;;
10216;SDS011;5152;59.674;16.838;2022-12-18T00:28:57;0.00;;;0.00;;
10216;SDS011;5152;59.674;16.838;2022-12-18T00:31:25;0.00;;;0.00;;
10216;SDS011;5152;59.674;16.838;2022-12-18T00:33:53;0.00;;;0.00;;
10216;SDS011;5152;59.674;16.838;2022-12-18T00:36:22;0.00;;;0.00;;
10216;SDS011;5152;59.674;16.838;2022-12-18T00:38:50;0.00;;;0.00;;
10216;SDS011;5152;59.674;16.838;2022-12-18T00:41:17;0.00;;;0.00;;
10216;SDS011;5152;59.674;16.838;2022-12-18T00:44:05;0.00;;;0.00;;
10216;SDS011;5152;59.674;16.838;2022-12-18T00:46:31;0.00;;;0.00;;
10216;SDS011;5152;59.674;16.838;2022-12-18T00:48:58;0.00;;;0.00;;
10216;SDS011;5152;59.674;16.838;2022-12-18T00:51:26;131.20;;;15.93;;
10216;SDS011;5152;59.674;16.838;2022-12-18T00:53:53;0.00;;;0.00;;
10216;SDS011;5152;59.674;16.838;2022-12-18T00:56:20;0.00;;;0.00;;
10216;SDS011;5152;59.674;16.838;2022-12-18T00:58:47;0.00;;;0.00;;
10216;SDS011;5152;59.674;16.838;2022-12-18T01:01:14;0.00;;;0.00;;
10216;SDS011;5152;59.674;16.838;2022-12-18T01:03:40;0.00;;;0.00;;
10216;SDS011;5152;59.674;16.838;2022-12-18T01:06:08;0.00;;;0.00;;
10216;SDS011;5152;59.674;16.838;2022-12-18T01:08:38;0.00;;;0.00;;
10216;SDS011;5152;59.674;16.838;2022-12-18T01:11:06;0.00;;;0.00;;
10216;SDS011;5152;59.674;16.838;2022-12-18T01:13:34;0.00;;;0.00;;
10216;SDS011;5152;59.674;16.838;2022-12-18T01:16:00;0.00;;;0.00;;
10216;SDS011;5152;59.674;16.838;2022-12-18T01:18:27;0.00;;;0.00;;
10216;SDS011;5152;59.674;16.838;2022-12-18T01:20:54;0.00;;;0.00;;
10216;SDS011;5152;59.674;16.838;2022-12-18T01:23:20;0.00;;;0.00;;
10216;SDS011;5152;59.674;16.838;2022-12-18T01:25:49;0.00;;;0.00;;
10216;SDS011;5152;59.674;16.838;2022-12-18T01:28:15;0.00;;;0.00;;
10216;SDS011;5152;59.674;16.838;2022-12-18T01:30:42;0.00;;;0.00;;
10216;SDS011;5152;59.674;16.838;2022-12-18T01:33:09;0.00;;;0.00;;
10216;SDS011;5152;59.674;16.838;2022-12-18T01:35:39;0.00;;;0.00;;
10216;SDS011;5152;59.674;16.838;2022-12-18T01:38:06;0.00;;;0.00;;
10216;SDS011;5152;59.674;16.838;2022-12-18T01:40:33;0.00;;;0.00;;
10216;SDS011;5152;59.674;16.838;2022-12-18T01:43:01;0.00;;;0.00;;
10216;SDS011;5152;59.674;16.838;2022-12-18T01:45:28;0.00;;;0.00;;
10216;SDS011;5152;59.674;16.838;2022-12-18T01:47:56;0.00;;;0.00;;
10216;SDS011;5152;59.674;16.838;2022-12-18T01:50:25;0.00;;;0.00;;
10216;SDS011;5152;59.674;16.838;2022-12-18T01:52:55;0.00;;;0.00;;
10216;SDS011;5152;59.674;16.838;2022-12-18T01:55:25;0.00;;;0.00;;
10216;SDS011;5152;59.674;16.838;2022-12-18T01:57:53;0.00;;;0.00;;
10216;SDS011;5152;59.674;16.838;2022-12-18T02:00:23;0.00;;;0.00;;
10216;SDS011;5152;59.674;16.838;2022-12-18T02:02:50;0.00;;;0.00;;
10216;SDS011;5152;59.674;16.838;2022-12-18T02:05:17;0.00;;;0.00;;
10216;SDS011;5152;59.674;16.838;2022-12-18T02:07:49;0.00;;;0.00;;
10216;SDS011;5152;59.674;16.838;2022-12-18T02:10:24;0.00;;;0.00;;
10216;SDS011;5152;59.674;16.838;2022-12-18T02:12:55;0.00;;;0.00;;
10216;SDS011;5152;59.674;16.838;2022-12-18T02:15:26;0.00;;;0.00;;
10216;SDS011;5152;59.674;16.838;2022-12-18T02:17:58;0.00;;;0.00;;
10216;SDS011;5152;59.674;16.838;2022-12-18T02:20:28;0.00;;;0.00;;
10216;SDS011;5152;59.674;16.838;2022-12-18T02:23:07;0.00;;;0.00;;
10216;SDS011;5152;59.674;16.838;2022-12-18T02:25:51;0.00;;;0.00;;
10216;SDS011;5152;59.674;16.838;2022-12-18T02:28:22;0.00;;;0.00;;
10216;SDS011;5152;59.674;16.838;2022-12-18T02:30:51;0.00;;;0.00;;
10216;SDS011;5152;59.674;16.838;2022-12-18T02:33:20;0.00;;;0.00;;
10216;SDS011;5152;59.674;16.838;2022-12-18T02:35:47;0.00;;;0.00;;
10216;SDS011;5152;59.674;16.838;2022-12-18T02:38:14;0.00;;;0.00;;
10216;SDS011;5152;59.674;16.838;2022-12-18T02:40:42;0.00;;;0.00;;
10216;SDS011;5152;59.674;16.838;2022-12-18T02:43:11;0.00;;;0.00;;
10216;SDS011;5152;59.674;16.838;2022-12-18T02:45:46;0.00;;;0.00;;
10216;SDS011;5152;59.674;16.838;2022-12-18T02:48:13;0.00;;;0.00;;
10216;SDS011;5152;59.674;16.838;2022-12-18T02:50:41;0.00;;;0.00;;
10216;SDS011;5152;59.674;16.838;2022-12-18T02:53:14;0.00;;;0.00;;
10216;SDS011;5152;59.674;16.838;2022-12-18T02:55:48;0.00;;;0.00;;
10216;SDS011;5152;59.674;16.838;2022-12-18T02:58:26;54.63;;;17.50;;
10216;SDS011;5152;59.674;16.838;2022-12-18T03:00:58;48.83;;;18.23;;
10216;SDS011;5152;59.674;16.838;2022-12-18T03:03:27;51.53;;;17.77;;
10216;SDS011;5152;59.674;16.838;2022-12-18T03:05:57;120.33;;;35.53;;
10216;SDS011;5152;59.674;16.838;2022-12-18T03:08:27;97.97;;;34.07;;
10216;SDS011;5152;59.674;16.838;2022-12-18T03:10:56;37.87;;;14.87;;
10216;SDS011;5152;59.674;16.838;2022-12-18T03:13:27;61.30;;;24.00;;
10216;SDS011;5152;59.674;16.838;2022-12-18T03:15:54;63.73;;;22.83;;
10216;SDS011;5152;59.674;16.838;2022-12-18T03:18:23;90.70;;;32.83;;
10216;SDS011;5152;59.674;16.838;2022-12-18T03:20:52;101.93;;;30.70;;
10216;SDS011;5152;59.674;16.838;2022-12-18T03:23:22;47.53;;;16.90;;
10216;SDS011;5152;59.674;16.838;2022-12-18T03:25:51;35.37;;;13.03;;
10216;SDS011;5152;59.674;16.838;2022-12-18T03:28:21;44.90;;;15.10;;
10216;SDS011;5152;59.674;16.838;2022-12-18T03:30:50;95.03;;;34.63;;
10216;SDS011;5152;59.674;16.838;2022-12-18T03:33:19;45.77;;;16.67;;
10216;SDS011;5152;59.674;16.838;2022-12-18T03:35:51;88.07;;;28.57;;
10216;SDS011;5152;59.674;16.838;2022-12-18T03:38:18;125.87;;;38.10;;
10216;SDS011;5152;59.674;16.838;2022-12-18T03:40:48;56.10;;;17.23;;
10216;SDS011;5152;59.674;16.838;2022-12-18T03:43:20;97.23;;;30.77;;
10216;SDS011;5152;59.674;16.838;2022-12-18T03:45:56;56.53;;;19.13;;
10216;SDS011;5152;59.674;16.838;2022-12-18T03:48:29;76.77;;;25.07;;
10216;SDS011;5152;59.674;16.838;2022-12-18T03:51:01;104.20;;;32.43;;
10216;SDS011;5152;59.674;16.838;2022-12-18T03:53:31;76.97;;;25.20;;
10216;SDS011;5152;59.674;16.838;2022-12-18T03:56:00;102.07;;;32.50;;
10216;SDS011;5152;59.674;16.838;2022-12-18T03:58:28;69.53;;;21.37;;
10216;SDS011;5152;59.674;16.838;2022-12-18T04:00:57;61.27;;;20.20;;
10216;SDS011;5152;59.674;16.838;2022-12-18T04:03:25;96.13;;;28.47;;
10216;SDS011;5152;59.674;16.838;2022-12-18T04:05:54;105.43;;;32.60;;
10216;SDS011;5152;59.674;16.838;2022-12-18T04:08:21;26.23;;;9.53;;
10216;SDS011;5152;59.674;16.838;2022-12-18T04:10:48;80.67;;;27.83;;
10216;SDS011;5152;59.674;16.838;2022-12-18T04:13:21;88.10;;;30.20;;
10216;SDS011;5152;59.674;16.838;2022-12-18T04:15:48;69.77;;;27.90;;
10216;SDS011;5152;59.674;16.838;2022-12-18T04:18:16;69.13;;;25.63;;
10216;SDS011;5152;59.674;16.838;2022-12-18T04:20:43;66.97;;;25.17;;
10216;SDS011;5152;59.674;16.838;2022-12-18T04:23:09;66.07;;;24.23;;
10216;SDS011;5152;59.674;16.838;2022-12-18T04:25:36;60.77;;;22.03;;
10216;SDS011;5152;59.674;16.838;2022-12-18T04:28:03;56.93;;;20.80;;
10216;SDS011;5152;59.674;16.838;2022-12-18T04:30:30;61.20;;;24.47;;
10216;SDS011;5152;59.674;16.838;2022-12-18T04:32:56;65.40;;;21.13;;
10216;SDS011;5152;59.674;16.838;2022-12-18T04:35:25;24.70;;;10.03;;
10216;SDS011;5152;59.674;16.838;2022-12-18T04:37:51;54.07;;;20.90;;
10216;SDS011;5152;59.674;16.838;2022-12-18T04:40:18;46.50;;;19.03;;
10216;SDS011;5152;59.674;16.838;2022-12-18T04:42:45;62.63;;;26.50;;
10216;SDS011;5152;59.674;16.838;2022-12-18T04:45:11;46.67;;;17.90;;
10216;SDS011;5152;59.674;16.838;2022-12-18T04:47:38;42.47;;;18.37;;
10216;SDS011;5152;59.674;16.838;2022-12-18T04:50:05;63.00;;;24.10;;
10216;SDS011;5152;59.674;16.838;2022-12-18T04:52:34;69.00;;;26.07;;
10216;SDS011;5152;59.674;16.838;2022-12-18T04:55:01;73.90;;;24.97;;
10216;SDS011;5152;59.674;16.838;2022-12-18T04:57:28;58.50;;;22.60;;
10216;SDS011;5152;59.674;16.838;2022-12-18T04:59:55;74.07;;;25.87;;
10216;SDS011;5152;59.674;16.838;2022-12-18T05:02:21;31.17;;;11.00;;
10216;SDS011;5152;59.674;16.838;2022-12-18T05:04:48;38.00;;;14.10;;
10216;SDS011;5152;59.674;16.838;2022-12-18T05:07:15;62.30;;;21.50;;
10216;SDS011;5152;59.674;16.838;2022-12-18T05:09:43;74.27;;;27.43;;
10216;SDS011;5152;59.674;16.838;2022-12-18T05:12:10;40.00;;;14.87;;
10216;SDS011;5152;59.674;16.838;2022-12-18T05:14:36;58.27;;;21.77;;
10216;SDS011;5152;59.674;16.838;2022-12-18T05:17:03;47.67;;;19.33;;
10216;SDS011;5152;59.674;16.838;2022-12-18T05:19:30;38.93;;;16.03;;
10216;SDS011;5152;59.674;16.838;2022-12-18T05:21:56;47.73;;;19.77;;
10216;SDS011;5152;59.674;16.838;2022-12-18T05:24:23;53.70;;;22.27;;
10216;SDS011;5152;59.674;16.838;2022-12-18T05:26:52;43.30;;;14.80;;
10216;SDS011;5152;59.674;16.838;2022-12-18T05:29:18;18.43;;;8.53;;
10216;SDS011;5152;59.674;16.838;2022-12-18T05:31:45;38.30;;;16.37;;
10216;SDS011;5152;59.674;16.838;2022-12-18T05:34:12;40.90;;;13.77;;
10216;SDS011;5152;59.674;16.838;2022-12-18T05:36:39;36.10;;;13.80;;
10216;SDS011;5152;59.674;16.838;2022-12-18T05:39:05;56.23;;;22.07;;
10216;SDS011;5152;59.674;16.838;2022-12-18T05:41:32;58.43;;;20.50;;
10216;SDS011;5152;59.674;16.838;2022-12-18T05:44:00;44.33;;;17.63;;
10216;SDS011;5152;59.674;16.838;2022-12-18T05:46:27;34.60;;;11.73;;
10216;SDS011;5152;59.674;16.838;2022-12-18T05:48:54;61.57;;;24.07;;
10216;SDS011;5152;59.674;16.838;2022-12-18T05:51:21;51.83;;;20.17;;
10216;SDS011;5152;59.674;16.838;2022-12-18T05:53:48;25.43;;;10.43;;
10216;SDS011;5152;59.674;16.838;2022-12-18T05:56:16;39.50;;;15.87;;
10216;SDS011;5152;59.674;16.838;2022-12-18T05:58:44;28.50;;;11.63;;
10216;SDS011;5152;59.674;16.838;2022-12-18T06:01:13;49.93;;;17.87;;
10216;SDS011;5152;59.674;16.838;2022-12-18T06:03:41;35.37;;;15.73;;
10216;SDS011;5152;59.674;16.838;2022-12-18T06:06:14;39.63;;;19.93;;
10216;SDS011;5152;59.674;16.838;2022-12-18T06:08:42;40.83;;;14.73;;
10216;SDS011;5152;59.674;16.838;2022-12-18T06:11:09;39.53;;;14.67;;
10216;SDS011;5152;59.674;16.838;2022-12-18T06:13:36;37.00;;;15.23;;
10216;SDS011;5152;59.674;16.838;2022-12-18T06:16:03;42.63;;;16.40;;
10216;SDS011;5152;59.674;16.838;2022-12-18T06:18:32;46.47;;;18.47;;
10216;SDS011;5152;59.674;16.838;2022-12-18T06:20:59;28.87;;;11.07;;
10216;SDS011;5152;59.674;16.838;2022-12-18T06:23:25;51.90;;;17.37;;
10216;SDS011;5152;59.674;16.838;2022-12-18T06:25:53;47.47;;;17.97;;
10216;SDS011;5152;59.674;16.838;2022-12-18T06:28:19;37.90;;;14.57;;
10216;SDS011;5152;59.674;16.838;2022-12-18T06:30:47;26.50;;;12.00;;
10216;SDS011;5152;59.674;16.838;2022-12-18T06:33:14;49.60;;;20.47;;
10216;SDS011;5152;59.674;16.838;2022-12-18T06:35:43;20.27;;;8.83;;
10216;SDS011;5152;59.674;16.838;2022-12-18T06:38:09;41.97;;;15.87;;
10216;SDS011;5152;59.674;16.838;2022-12-18T06:40:36;59.77;;;24.83;;
10216;SDS011;5152;59.674;16.838;2022-12-18T06:43:03;36.80;;;15.80;;
10216;SDS011;5152;59.674;16.838;2022-12-18T06:45:30;34.97;;;13.30;;
10216;SDS011;5152;59.674;16.838;2022-12-18T06:47:57;37.90;;;18.57;;
10216;SDS011;5152;59.674;16.838;2022-12-18T06:50:24;42.27;;;20.90;;
10216;SDS011;5152;59.674;16.838;2022-12-18T06:52:52;43.17;;;19.20;;
10216;SDS011;5152;59.674;16.838;2022-12-18T06:55:19;45.23;;;18.07;;
10216;SDS011;5152;59.674;16.838;2022-12-18T06:57:45;35.87;;;14.77;;
10216;SDS011;5152;59.674;16.838;2022-12-18T07:00:13;36.70;;;17.37;;
10216;SDS011;5152;59.674;16.838;2022-12-18T07:02:40;34.60;;;13.73;;
10216;SDS011;5152;59.674;16.838;2022-12-18T07:05:06;26.80;;;12.27;;
10216;SDS011;5152;59.674;16.838;2022-12-18T07:07:33;21.40;;;9.73;;
10216;SDS011;5152;59.674;16.838;2022-12-18T07:10:02;36.70;;;14.10;;
10216;SDS011;5152;59.674;16.838;2022-12-18T07:12:29;27.10;;;10.93;;
10216;SDS011;5152;59.674;16.838;2022-12-18T07:14:56;77.67;;;29.37;;
10216;SDS011;5152;59.674;16.838;2022-12-18T07:17:23;53.87;;;19.50;;
10216;SDS011;5152;59.674;16.838;2022-12-18T07:19:49;41.90;;;20.83;;
10216;SDS011;5152;59.674;16.838;2022-12-18T07:22:16;23.93;;;9.80;;
10216;SDS011;5152;59.674;16.838;2022-12-18T07:24:43;24.57;;;9.90;;
10216;SDS011;5152;59.674;16.838;2022-12-18T07:27:11;57.93;;;20.93;;
10216;SDS011;5152;59.674;16.838;2022-12-18T07:29:38;20.20;;;9.37;;
10216;SDS011;5152;59.674;16.838;2022-12-18T07:32:05;43.13;;;15.53;;
10216;SDS011;5152;59.674;16.838;2022-12-18T07:34:32;58.97;;;21.93;;
10216;SDS011;5152;59.674;16.838;2022-12-18T07:36:58;60.40;;;21.10;;
10216;SDS011;5152;59.674;16.838;2022-12-18T07:39:25;61.00;;;19.80;;
10216;SDS011;5152;59.674;16.838;2022-12-18T07:41:52;77.83;;;25.47;;
10216;SDS011;5152;59.674;16.838;2022-12-18T07:44:34;78.57;;;29.47;;
10216;SDS011;5152;59.674;16.838;2022-12-18T07:47:01;25.40;;;9.67;;
10216;SDS011;5152;59.674;16.838;2022-12-18T07:49:28;57.43;;;22.73;;
10216;SDS011;5152;59.674;16.838;2022-12-18T07:51:55;62.47;;;26.90;;
10216;SDS011;5152;59.674;16.838;2022-12-18T07:54:22;56.43;;;23.50;;
10216;SDS011;5152;59.674;16.838;2022-12-18T07:56:49;42.53;;;15.47;;
10216;SDS011;5152;59.674;16.838;2022-12-18T07:59:16;45.80;;;18.43;;
10216;SDS011;5152;59.674;16.838;2022-12-18T08:01:44;19.03;;;8.27;;
10216;SDS011;5152;59.674;16.838;2022-12-18T08:04:11;33.10;;;12.40;;
10216;SDS011;5152;59.674;16.838;2022-12-18T08:06:38;47.27;;;21.57;;
10216;SDS011;5152;59.674;16.838;2022-12-18T08:09:05;42.30;;;19.60;;
10216;SDS011;5152;59.674;16.838;2022-12-18T08:11:33;29.07;;;11.70;;
10216;SDS011;5152;59.674;16.838;2022-12-18T08:14:00;38.27;;;14.53;;
10216;SDS011;5152;59.674;16.838;2022-12-18T08:16:26;44.37;;;19.73;;
10216;SDS011;5152;59.674;16.838;2022-12-18T08:18:57;45.87;;;19.93;;
10216;SDS011;5152;59.674;16.838;2022-12-18T08:21:24;22.43;;;8.07;;
10216;SDS011;5152;59.674;16.838;2022-12-18T08:23:52;40.93;;;18.13;;
10216;SDS011;5152;59.674;16.838;2022-12-18T08:26:20;38.47;;;14.90;;
10216;SDS011;5152;59.674;16.838;2022-12-18T08:28:47;58.07;;;22.57;;
10216;SDS011;5152;59.674;16.838;2022-12-18T08:31:14;45.57;;;19.47;;
10216;SDS011;5152;59.674;16.838;2022-12-18T08:33:41;33.57;;;14.47;;
10216;SDS011;5152;59.674;16.838;2022-12-18T08:36:10;53.87;;;21.27;;
10216;SDS011;5152;59.674;16.838;2022-12-18T08:38:36;43.47;;;20.23;;
10216;SDS011;5152;59.674;16.838;2022-12-18T08:41:04;35.00;;;14.13;;
10216;SDS011;5152;59.674;16.838;2022-12-18T08:43:32;42.90;;;18.50;;
10216;SDS011;5152;59.674;16.838;2022-12-18T08:46:16;36.20;;;15.90;;
10216;SDS011;5152;59.674;16.838;2022-12-18T08:48:43;30.83;;;16.00;;
10216;SDS011;5152;59.674;16.838;2022-12-18T08:51:12;33.67;;;15.93;;
10216;SDS011;5152;59.674;16.838;2022-12-18T08:53:39;39.93;;;17.67;;
10216;SDS011;5152;59.674;16.838;2022-12-18T08:56:06;26.13;;;11.13;;
10216;SDS011;5152;59.674;16.838;2022-12-18T08:58:33;38.03;;;17.27;;
10216;SDS011;5152;59.674;16.838;2022-12-18T09:01:00;36.17;;;14.43;;
10216;SDS011;5152;59.674;16.838;2022-12-18T09:03:27;38.43;;;16.33;;
10216;SDS011;5152;59.674;16.838;2022-12-18T09:05:55;24.80;;;10.93;;
10216;SDS011;5152;59.674;16.838;2022-12-18T09:08:23;29.73;;;16.13;;
10216;SDS011;5152;59.674;16.838;2022-12-18T09:10:50;23.33;;;11.33;;
10216;SDS011;5152;59.674;16.838;2022-12-18T09:13:17;34.47;;;16.27;;
10216;SDS011;5152;59.674;16.838;2022-12-18T09:15:45;20.63;;;10.50;;
10216;SDS011;5152;59.674;16.838;2022-12-18T09:18:12;21.57;;;10.23;;
10216;SDS011;5152;59.674;16.838;2022-12-18T09:20:40;18.77;;;9.37;;
10216;SDS011;5152;59.674;16.838;2022-12-18T09:23:07;24.23;;;11.00;;
10216;SDS011;5152;59.674;16.838;2022-12-18T09:25:35;29.97;;;15.77;;
10216;SDS011;5152;59.674;16.838;2022-12-18T09:28:04;27.50;;;14.40;;
10216;SDS011;5152;59.674;16.838;2022-12-18T09:30:31;71.77;;;33.63;;
10216;SDS011;5152;59.674;16.838;2022-12-18T09:32:59;107.00;;;30.27;;
10216;SDS011;5152;59.674;16.838;2022-12-18T09:35:26;46.50;;;19.27;;
10216;SDS011;5152;59.674;16.838;2022-12-18T09:37:53;29.27;;;13.70;;
10216;SDS011;5152;59.674;16.838;2022-12-18T09:40:21;23.30;;;10.83;;
10216;SDS011;5152;59.674;16.838;2022-12-18T09:42:51;39.30;;;19.77;;
10216;SDS011;5152;59.674;16.838;2022-12-18T09:45:20;30.30;;;12.10;;
10216;SDS011;5152;59.674;16.838;2022-12-18T09:47:48;61.30;;;27.50;;
10216;SDS011;5152;59.674;16.838;2022-12-18T09:50:19;25.13;;;12.00;;
10216;SDS011;5152;59.674;16.838;2022-12-18T09:52:50;35.07;;;18.13;;
10216;SDS011;5152;59.674;16.838;2022-12-18T09:55:21;26.13;;;15.70;;
10216;SDS011;5152;59.674;16.838;2022-12-18T09:57:53;21.43;;;11.93;;
10216;SDS011;5152;59.674;16.838;2022-12-18T10:00:22;25.17;;;13.87;;
10216;SDS011;5152;59.674;16.838;2022-12-18T10:02:53;17.50;;;8.57;;
10216;SDS011;5152;59.674;16.838;2022-12-18T10:05:25;18.37;;;11.53;;
10216;SDS011;5152;59.674;16.838;2022-12-18T10:07:58;16.60;;;7.93;;
10216;SDS011;5152;59.674;16.838;2022-12-18T10:10:31;20.30;;;9.70;;
10216;SDS011;5152;59.674;16.838;2022-12-18T10:13:07;19.07;;;11.13;;
10216;SDS011;5152;59.674;16.838;2022-12-18T10:15:39;17.67;;;9.03;;
10216;SDS011;5152;59.674;16.838;2022-12-18T10:18:14;16.63;;;10.07;;
10216;SDS011;5152;59.674;16.838;2022-12-18T10:20:47;16.90;;;9.17;;
10216;SDS011;5152;59.674;16.838;2022-12-18T10:23:17;19.70;;;11.00;;
10216;SDS011;5152;59.674;16.838;2022-12-18T10:25:50;9.53;;;6.10;;
10216;SDS011;5152;59.674;16.838;2022-12-18T10:28:21;15.60;;;8.20;;
10216;SDS011;5152;59.674;16.838;2022-12-18T10:30:49;24.63;;;12.57;;
10216;SDS011;5152;59.674;16.838;2022-12-18T10:33:16;22.73;;;10.23;;
10216;SDS011;5152;59.674;16.838;2022-12-18T10:35:44;12.00;;;7.30;;
10216;SDS011;5152;59.674;16.838;2022-12-18T10:38:23;24.90;;;13.03;;
10216;SDS011;5152;59.674;16.838;2022-12-18T10:40:51;14.33;;;7.13;;
10216;SDS011;5152;59.674;16.838;2022-12-18T10:43:22;22.30;;;9.93;;
10216;SDS011;5152;59.674;16.838;2022-12-18T10:46:00;12.67;;;6.87;;
10216;SDS011;5152;59.674;16.838;2022-12-18T10:48:40;18.97;;;9.37;;
10216;SDS011;5152;59.674;16.838;2022-12-18T10:51:19;18.93;;;8.60;;
10216;SDS011;5152;59.674;16.838;2022-12-18T10:53:51;13.20;;;6.70;;
10216;SDS011;5152;59.674;16.838;2022-12-18T10:56:19;14.70;;;7.83;;
10216;SDS011;5152;59.674;16.838;2022-12-18T10:58:54;14.17;;;7.80;;
10216;SDS011;5152;59.674;16.838;2022-12-18T11:01:22;15.53;;;7.30;;
10216;SDS011;5152;59.674;16.838;2022-12-18T11:03:59;16.57;;;8.10;;
10216;SDS011;5152;59.674;16.838;2022-12-18T11:06:27;12.00;;;6.00;;
10216;SDS011;5152;59.674;16.838;2022-12-18T11:08:59;14.23;;;5.97;;
10216;SDS011;5152;59.674;16.838;2022-12-18T11:11:26;21.83;;;9.70;;
10216;SDS011;5152;59.674;16.838;2022-12-18T11:13:58;15.37;;;9.07;;
10216;SDS011;5152;59.674;16.838;2022-12-18T11:16:26;14.70;;;7.37;;
10216;SDS011;5152;59.674;16.838;2022-12-18T11:18:57;18.43;;;7.97;;
10216;SDS011;5152;59.674;16.838;2022-12-18T11:21:45;14.57;;;7.27;;
10216;SDS011;5152;59.674;16.838;2022-12-18T11:24:15;16.97;;;7.33;;
10216;SDS011;5152;59.674;16.838;2022-12-18T11:26:47;11.90;;;5.13;;
10216;SDS011;5152;59.674;16.838;2022-12-18T11:29:17;13.73;;;7.90;;
10216;SDS011;5152;59.674;16.838;2022-12-18T11:31:44;28.43;;;12.93;;
10216;SDS011;5152;59.674;16.838;2022-12-18T11:34:12;20.03;;;8.27;;
10216;SDS011;5152;59.674;16.838;2022-12-18T11:36:43;45.37;;;16.93;;
10216;SDS011;5152;59.674;16.838;2022-12-18T11:39:12;31.83;;;15.40;;
10216;SDS011;5152;59.674;16.838;2022-12-18T11:41:45;10.83;;;5.33;;
10216;SDS011;5152;59.674;16.838;2022-12-18T11:44:35;15.63;;;6.60;;
10216;SDS011;5152;59.674;16.838;2022-12-18T11:47:08;57.63;;;26.10;;
10216;SDS011;5152;59.674;16.838;2022-12-18T11:49:39;30.23;;;14.17;;
10216;SDS011;5152;59.674;16.838;2022-12-18T11:52:15;14.40;;;6.33;;
10216;SDS011;5152;59.674;16.838;2022-12-18T11:54:44;18.17;;;8.80;;
10216;SDS011;5152;59.674;16.838;2022-12-18T11:57:13;21.53;;;7.30;;
10216;SDS011;5152;59.674;16.838;2022-12-18T11:59:47;16.40;;;7.20;;
10216;SDS011;5152;59.674;16.838;2022-12-18T12:02:26;11.97;;;6.97;;
10216;SDS011;5152;59.674;16.838;2022-12-18T12:05:10;7.93;;;4.30;;
10216;SDS011;5152;59.674;16.838;2022-12-18T12:07:44;5.17;;;3.67;;
10216;SDS011;5152;59.674;16.838;2022-12-18T12:10:17;7.07;;;3.67;;
10216;SDS011;5152;59.674;16.838;2022-12-18T12:12:57;11.87;;;5.27;;
10216;SDS011;5152;59.674;16.838;2022-12-18T12:15:37;6.50;;;3.97;;
10216;SDS011;5152;59.674;16.838;2022-12-18T12:18:13;6.37;;;3.47;;
10216;SDS011;5152;59.674;16.838;2022-12-18T12:20:49;7.00;;;3.43;;
10216;SDS011;5152;59.674;16.838;2022-12-18T12:23:20;6.37;;;3.53;;
10216;SDS011;5152;59.674;16.838;2022-12-18T12:25:54;7.87;;;3.47;;
10216;SDS011;5152;59.674;16.838;2022-12-18T12:28:28;4.83;;;3.00;;
10216;SDS011;5152;59.674;16.838;2022-12-18T12:31:07;6.67;;;2.77;;
10216;SDS011;5152;59.674;16.838;2022-12-18T12:33:42;7.57;;;3.60;;
10216;SDS011;5152;59.674;16.838;2022-12-18T12:36:16;9.07;;;3.57;;
10216;SDS011;5152;59.674;16.838;2022-12-18T12:38:48;11.03;;;3.77;;
10216;SDS011;5152;59.674;16.838;2022-12-18T12:41:17;4.37;;;2.80;;
10216;SDS011;5152;59.674;16.838;2022-12-18T12:44:04;10.47;;;3.77;;
10216;SDS011;5152;59.674;16.838;2022-12-18T12:46:36;11.23;;;3.30;;
10216;SDS011;5152;59.674;16.838;2022-12-18T12:49:08;14.50;;;3.50;;
10216;SDS011;5152;59.674;16.838;2022-12-18T12:51:37;4.43;;;2.97;;
10216;SDS011;5152;59.674;16.838;2022-12-18T12:54:10;7.90;;;2.93;;
10216;SDS011;5152;59.674;16.838;2022-12-18T12:56:39;6.77;;;2.63;;
10216;SDS011;5152;59.674;16.838;2022-12-18T12:59:11;5.90;;;2.57;;
10216;SDS011;5152;59.674;16.838;2022-12-18T13:01:47;10.80;;;3.63;;
10216;SDS011;5152;59.674;16.838;2022-12-18T13:04:19;5.57;;;3.33;;
10216;SDS011;5152;59.674;16.838;2022-12-18T13:06:50;6.50;;;2.63;;
10216;SDS011;5152;59.674;16.838;2022-12-18T13:09:20;6.47;;;3.40;;
10216;SDS011;5152;59.674;16.838;2022-12-18T13:11:47;5.90;;;3.00;;
10216;SDS011;5152;59.674;16.838;2022-12-18T13:14:32;5.00;;;2.63;;
10216;SDS011;5152;59.674;16.838;2022-12-18T13:17:15;7.13;;;2.83;;
10216;SDS011;5152;59.674;16.838;2022-12-18T13:20:02;7.23;;;2.70;;
10216;SDS011;5152;59.674;16.838;2022-12-18T13:22:32;4.67;;;2.37;;
10216;SDS011;5152;59.674;16.838;2022-12-18T13:25:00;8.47;;;2.83;;
10216;SDS011;5152;59.674;16.838;2022-12-18T13:27:51;6.77;;;2.50;;
10216;SDS011;5152;59.674;16.838;2022-12-18T13:30:43;5.07;;;2.50;;
10216;SDS011;5152;59.674;16.838;2022-12-18T13:33:38;10.73;;;2.60;;
10216;SDS011;5152;59.674;16.838;2022-12-18T13:36:12;5.47;;;1.93;;
10216;SDS011;5152;59.674;16.838;2022-12-18T13:38:41;5.73;;;2.00;;
10216;SDS011;5152;59.674;16.838;2022-12-18T13:43:51;7.03;;;2.90;;
10216;SDS011;5152;59.674;16.838;2022-12-18T13:46:20;3.73;;;2.43;;
10216;SDS011;5152;59.674;16.838;2022-12-18T13:48:56;5.17;;;2.10;;
10216;SDS011;5152;59.674;16.838;2022-12-18T13:51:27;7.60;;;2.30;;
10216;SDS011;5152;59.674;16.838;2022-12-18T13:53:56;7.90;;;2.70;;
10216;SDS011;5152;59.674;16.838;2022-12-18T13:56:25;6.80;;;2.27;;
10216;SDS011;5152;59.674;16.838;2022-12-18T13:59:04;8.60;;;2.57;;
10216;SDS011;5152;59.674;16.838;2022-12-18T14:01:35;7.97;;;2.17;;
10216;SDS011;5152;59.674;16.838;2022-12-18T14:04:11;7.63;;;1.90;;
10216;SDS011;5152;59.674;16.838;2022-12-18T14:06:38;6.53;;;2.67;;
10216;SDS011;5152;59.674;16.838;2022-12-18T14:09:05;3.03;;;1.80;;
10216;SDS011;5152;59.674;16.838;2022-12-18T14:11:32;5.07;;;1.93;;
10216;SDS011;5152;59.674;16.838;2022-12-18T14:13:58;3.23;;;1.80;;
10216;SDS011;5152;59.674;16.838;2022-12-18T14:16:25;5.10;;;2.20;;
10216;SDS011;5152;59.674;16.838;2022-12-18T14:18:53;5.43;;;2.33;;
10216;SDS011;5152;59.674;16.838;2022-12-18T14:21:23;7.07;;;2.67;;
10216;SDS011;5152;59.674;16.838;2022-12-18T14:24:02;6.43;;;2.20;;
10216;SDS011;5152;59.674;16.838;2022-12-18T14:26:31;5.53;;;2.33;;
10216;SDS011;5152;59.674;16.838;2022-12-18T14:28:58;5.13;;;2.33;;
10216;SDS011;5152;59.674;16.838;2022-12-18T14:31:27;2.87;;;1.73;;
10216;SDS011;5152;59.674;16.838;2022-12-18T14:33:55;7.33;;;2.03;;
10216;SDS011;5152;59.674;16.838;2022-12-18T14:36:24;4.80;;;2.17;;
10216;SDS011;5152;59.674;16.838;2022-12-18T14:38:52;7.30;;;2.67;;
10216;SDS011;5152;59.674;16.838;2022-12-18T14:41:20;1.70;;;1.60;;
10216;SDS011;5152;59.674;16.838;2022-12-18T14:43:48;3.37;;;2.07;;
10216;SDS011;5152;59.674;16.838;2022-12-18T14:49:01;3.80;;;1.80;;
10216;SDS011;5152;59.674;16.838;2022-12-18T14:51:31;8.47;;;3.07;;
10216;SDS011;5152;59.674;16.838;2022-12-18T14:53:59;5.97;;;2.00;;